sensor_id;sensor_type;location;lat;lon;timestamp;temperature;humidity
69747;DHT22;57018;50.278;19.134;2022-12-05T00:00:56;2.60;99.90
69747;DHT22;57018;50.278;19.134;2022-12-05T00:03:27;2.60;99.90
69747;DHT22;57018;50.278;19.134;2022-12-05T00:05:57;2.60;99.90
69747;DHT22;57018;50.278;19.134;2022-12-05T00:08:27;2.60;99.90
69747;DHT22;57018;50.278;19.134;2022-12-05T00:10:57;2.40;99.90
69747;DHT22;57018;50.278;19.134;2022-12-05T00:13:27;2.50;99.90
69747;DHT22;57018;50.278;19.134;2022-12-05T00:15:55;2.60;99.90
69747;DHT22;57018;50.278;19.134;2022-12-05T00:18:25;2.40;99.90
69747;DHT22;57018;50.278;19.134;2022-12-05T00:20:55;2.50;99.90
69747;DHT22;57018;50.278;19.134;2022-12-05T00:23:25;2.50;99.90
69747;DHT22;57018;50.278;19.134;2022-12-05T00:25:55;2.60;99.90
69747;DHT22;57018;50.278;19.134;2022-12-05T00:28:25;2.40;99.90
69747;DHT22;57018;50.278;19.134;2022-12-05T00:30:55;2.50;99.90
69747;DHT22;57018;50.278;19.134;2022-12-05T00:33:23;2.30;99.90
69747;DHT22;57018;50.278;19.134;2022-12-05T00:35:53;2.30;99.90
69747;DHT22;57018;50.278;19.134;2022-12-05T00:38:23;2.40;99.90
69747;DHT22;57018;50.278;19.134;2022-12-05T00:40:53;2.30;99.90
69747;DHT22;57018;50.278;19.134;2022-12-05T00:43:23;2.70;99.90
69747;DHT22;57018;50.278;19.134;2022-12-05T00:45:53;2.60;99.90
69747;DHT22;57018;50.278;19.134;2022-12-05T00:48:22;2.30;99.90
69747;DHT22;57018;50.278;19.134;2022-12-05T00:51:00;2.50;99.90
69747;DHT22;57018;50.278;19.134;2022-12-05T00:53:31;2.50;99.90
69747;DHT22;57018;50.278;19.134;2022-12-05T00:56:04;2.40;99.90
69747;DHT22;57018;50.278;19.134;2022-12-05T00:58:34;2.40;99.90
69747;DHT22;57018;50.278;19.134;2022-12-05T01:01:08;2.60;99.90
69747;DHT22;57018;50.278;19.134;2022-12-05T01:03:37;2.40;99.90
69747;DHT22;57018;50.278;19.134;2022-12-05T01:06:08;2.20;99.90
69747;DHT22;57018;50.278;19.134;2022-12-05T01:08:38;2.30;99.90
69747;DHT22;57018;50.278;19.134;2022-12-05T01:11:10;2.30;99.90
69747;DHT22;57018;50.278;19.134;2022-12-05T01:13:40;2.20;99.90
69747;DHT22;57018;50.278;19.134;2022-12-05T01:16:15;2.30;99.90
69747;DHT22;57018;50.278;19.134;2022-12-05T01:18:45;2.40;99.90
69747;DHT22;57018;50.278;19.134;2022-12-05T01:21:15;2.20;99.90
69747;DHT22;57018;50.278;19.134;2022-12-05T01:23:44;2.40;99.90
69747;DHT22;57018;50.278;19.134;2022-12-05T01:26:17;2.40;99.90
69747;DHT22;57018;50.278;19.134;2022-12-05T01:28:47;2.70;99.90
69747;DHT22;57018;50.278;19.134;2022-12-05T01:31:20;2.50;99.90
69747;DHT22;57018;50.278;19.134;2022-12-05T01:33:49;2.70;99.90
69747;DHT22;57018;50.278;19.134;2022-12-05T01:36:19;2.40;99.90
69747;DHT22;57018;50.278;19.134;2022-12-05T01:38:50;2.40;99.90
69747;DHT22;57018;50.278;19.134;2022-12-05T01:41:22;2.60;99.90
69747;DHT22;57018;50.278;19.134;2022-12-05T01:43:57;2.30;99.90
69747;DHT22;57018;50.278;19.134;2022-12-05T01:46:29;2.30;99.90
69747;DHT22;57018;50.278;19.134;2022-12-05T01:49:02;2.30;99.90
69747;DHT22;57018;50.278;19.134;2022-12-05T01:51:34;2.40;99.90
69747;DHT22;57018;50.278;19.134;2022-12-05T01:54:06;2.50;99.90
69747;DHT22;57018;50.278;19.134;2022-12-05T01:56:37;2.50;99.90
69747;DHT22;57018;50.278;19.134;2022-12-05T01:59:09;2.50;99.90
69747;DHT22;57018;50.278;19.134;2022-12-05T02:01:40;2.60;99.90
69747;DHT22;57018;50.278;19.134;2022-12-05T02:04:10;2.40;99.90
69747;DHT22;57018;50.278;19.134;2022-12-05T02:06:41;2.40;99.90
69747;DHT22;57018;50.278;19.134;2022-12-05T02:09:11;2.40;99.90
69747;DHT22;57018;50.278;19.134;2022-12-05T02:11:46;2.50;99.90
69747;DHT22;57018;50.278;19.134;2022-12-05T02:14:27;2.40;99.90
69747;DHT22;57018;50.278;19.134;2022-12-05T02:17:07;2.50;99.90
69747;DHT22;57018;50.278;19.134;2022-12-05T02:20:08;2.70;99.90
69747;DHT22;57018;50.278;19.134;2022-12-05T02:22:56;2.50;99.90
69747;DHT22;57018;50.278;19.134;2022-12-05T02:28:55;2.60;99.90
69747;DHT22;57018;50.278;19.134;2022-12-05T02:31:33;2.60;99.90
69747;DHT22;57018;50.278;19.134;2022-12-05T02:34:09;2.70;99.90
69747;DHT22;57018;50.278;19.134;2022-12-05T02:36:46;2.60;99.90
69747;DHT22;57018;50.278;19.134;2022-12-05T02:39:21;2.70;99.90
69747;DHT22;57018;50.278;19.134;2022-12-05T02:42:01;2.60;99.90
69747;DHT22;57018;50.278;19.134;2022-12-05T02:44:36;2.70;99.90
69747;DHT22;57018;50.278;19.134;2022-12-05T02:47:10;2.80;99.70
69747;DHT22;57018;50.278;19.134;2022-12-05T02:49:41;2.70;99.90
69747;DHT22;57018;50.278;19.134;2022-12-05T02:52:14;2.80;99.80
69747;DHT22;57018;50.278;19.134;2022-12-05T02:54:48;3.00;99.90
69747;DHT22;57018;50.278;19.134;2022-12-05T02:57:21;2.90;99.10
69747;DHT22;57018;50.278;19.134;2022-12-05T02:59:52;2.80;99.90
69747;DHT22;57018;50.278;19.134;2022-12-05T03:02:26;2.80;99.60
69747;DHT22;57018;50.278;19.134;2022-12-05T03:05:01;2.90;99.80
69747;DHT22;57018;50.278;19.134;2022-12-05T03:07:33;2.70;99.20
69747;DHT22;57018;50.278;19.134;2022-12-05T03:10:08;3.00;99.40
69747;DHT22;57018;50.278;19.134;2022-12-05T03:12:41;2.80;99.20
69747;DHT22;57018;50.278;19.134;2022-12-05T03:15:12;2.70;99.90
69747;DHT22;57018;50.278;19.134;2022-12-05T03:17:49;2.70;99.90
69747;DHT22;57018;50.278;19.134;2022-12-05T03:20:24;2.70;99.90
69747;DHT22;57018;50.278;19.134;2022-12-05T03:22:59;2.90;99.10
69747;DHT22;57018;50.278;19.134;2022-12-05T03:25:39;2.60;99.90
69747;DHT22;57018;50.278;19.134;2022-12-05T03:28:16;2.80;99.40
69747;DHT22;57018;50.278;19.134;2022-12-05T03:30:48;2.90;99.30
69747;DHT22;57018;50.278;19.134;2022-12-05T03:33:24;2.90;99.10
69747;DHT22;57018;50.278;19.134;2022-12-05T03:36:01;2.80;99.20
69747;DHT22;57018;50.278;19.134;2022-12-05T03:38:37;2.80;99.10
69747;DHT22;57018;50.278;19.134;2022-12-05T03:41:14;2.80;98.90
69747;DHT22;57018;50.278;19.134;2022-12-05T03:43:53;2.90;98.80
69747;DHT22;57018;50.278;19.134;2022-12-05T03:46:28;3.00;98.00
69747;DHT22;57018;50.278;19.134;2022-12-05T03:49:06;2.80;99.40
69747;DHT22;57018;50.278;19.134;2022-12-05T03:51:38;3.10;98.60
69747;DHT22;57018;50.278;19.134;2022-12-05T03:54:13;3.00;99.20
69747;DHT22;57018;50.278;19.134;2022-12-05T03:56:48;3.10;98.80
69747;DHT22;57018;50.278;19.134;2022-12-05T03:59:24;3.00;98.60
69747;DHT22;57018;50.278;19.134;2022-12-05T04:01:56;3.00;98.80
69747;DHT22;57018;50.278;19.134;2022-12-05T04:04:33;2.80;98.70
69747;DHT22;57018;50.278;19.134;2022-12-05T04:07:06;2.70;99.50
69747;DHT22;57018;50.278;19.134;2022-12-05T04:09:36;2.60;99.90
69747;DHT22;57018;50.278;19.134;2022-12-05T04:12:13;2.70;99.60
69747;DHT22;57018;50.278;19.134;2022-12-05T04:14:43;2.60;99.90
69747;DHT22;57018;50.278;19.134;2022-12-05T04:17:17;2.60;99.70
69747;DHT22;57018;50.278;19.134;2022-12-05T04:19:52;2.60;99.90
69747;DHT22;57018;50.278;19.134;2022-12-05T04:22:41;2.80;99.50
69747;DHT22;57018;50.278;19.134;2022-12-05T04:25:14;2.80;99.40
69747;DHT22;57018;50.278;19.134;2022-12-05T04:28:14;2.70;99.60
69747;DHT22;57018;50.278;19.134;2022-12-05T04:30:52;2.90;99.80
69747;DHT22;57018;50.278;19.134;2022-12-05T04:33:29;2.70;99.40
69747;DHT22;57018;50.278;19.134;2022-12-05T04:36:04;2.80;99.50
69747;DHT22;57018;50.278;19.134;2022-12-05T04:38:40;2.80;99.40
69747;DHT22;57018;50.278;19.134;2022-12-05T04:41:14;2.70;99.80
69747;DHT22;57018;50.278;19.134;2022-12-05T04:43:47;2.60;99.90
69747;DHT22;57018;50.278;19.134;2022-12-05T04:46:20;2.80;99.70
69747;DHT22;57018;50.278;19.134;2022-12-05T04:48:49;2.40;99.90
69747;DHT22;57018;50.278;19.134;2022-12-05T04:51:24;2.60;99.90
69747;DHT22;57018;50.278;19.134;2022-12-05T04:53:59;2.60;99.90
69747;DHT22;57018;50.278;19.134;2022-12-05T04:56:35;2.40;99.90
69747;DHT22;57018;50.278;19.134;2022-12-05T04:59:05;2.50;99.90
69747;DHT22;57018;50.278;19.134;2022-12-05T05:01:40;2.40;99.90
69747;DHT22;57018;50.278;19.134;2022-12-05T05:04:14;2.50;99.90
69747;DHT22;57018;50.278;19.134;2022-12-05T05:06:45;2.40;99.90
69747;DHT22;57018;50.278;19.134;2022-12-05T05:09:15;2.20;99.90
69747;DHT22;57018;50.278;19.134;2022-12-05T05:11:45;2.20;99.90
69747;DHT22;57018;50.278;19.134;2022-12-05T05:14:15;2.10;99.90
69747;DHT22;57018;50.278;19.134;2022-12-05T05:16:45;2.30;99.90
69747;DHT22;57018;50.278;19.134;2022-12-05T05:19:15;2.10;99.90
69747;DHT22;57018;50.278;19.134;2022-12-05T05:21:45;2.20;99.90
69747;DHT22;57018;50.278;19.134;2022-12-05T05:24:16;2.30;99.90
69747;DHT22;57018;50.278;19.134;2022-12-05T05:26:46;2.10;99.90
69747;DHT22;57018;50.278;19.134;2022-12-05T05:29:16;2.20;99.90
69747;DHT22;57018;50.278;19.134;2022-12-05T05:31:46;2.00;99.90
69747;DHT22;57018;50.278;19.134;2022-12-05T05:34:16;2.10;99.90
69747;DHT22;57018;50.278;19.134;2022-12-05T05:36:49;2.00;99.90
69747;DHT22;57018;50.278;19.134;2022-12-05T05:39:20;2.00;99.90
69747;DHT22;57018;50.278;19.134;2022-12-05T05:41:50;2.10;99.90
69747;DHT22;57018;50.278;19.134;2022-12-05T05:44:20;1.90;99.90
69747;DHT22;57018;50.278;19.134;2022-12-05T05:46:50;2.00;99.90
69747;DHT22;57018;50.278;19.134;2022-12-05T05:49:20;2.20;99.90
69747;DHT22;57018;50.278;19.134;2022-12-05T05:51:50;2.00;99.90
69747;DHT22;57018;50.278;19.134;2022-12-05T05:54:20;1.90;99.90
69747;DHT22;57018;50.278;19.134;2022-12-05T05:56:50;2.00;99.90
69747;DHT22;57018;50.278;19.134;2022-12-05T05:59:20;2.00;99.90
69747;DHT22;57018;50.278;19.134;2022-12-05T06:01:50;1.90;99.90
69747;DHT22;57018;50.278;19.134;2022-12-05T06:04:20;2.00;99.90
69747;DHT22;57018;50.278;19.134;2022-12-05T06:06:50;2.10;99.90
69747;DHT22;57018;50.278;19.134;2022-12-05T06:09:20;2.30;99.90
69747;DHT22;57018;50.278;19.134;2022-12-05T06:11:48;2.20;99.90
69747;DHT22;57018;50.278;19.134;2022-12-05T06:14:18;2.00;99.90
69747;DHT22;57018;50.278;19.134;2022-12-05T06:16:48;2.40;99.90
69747;DHT22;57018;50.278;19.134;2022-12-05T06:19:18;2.30;99.90
69747;DHT22;57018;50.278;19.134;2022-12-05T06:21:50;2.40;99.90
69747;DHT22;57018;50.278;19.134;2022-12-05T06:24:20;2.10;99.90
69747;DHT22;57018;50.278;19.134;2022-12-05T06:26:48;2.30;99.90
69747;DHT22;57018;50.278;19.134;2022-12-05T06:29:18;2.20;99.90
69747;DHT22;57018;50.278;19.134;2022-12-05T06:31:48;2.20;99.90
69747;DHT22;57018;50.278;19.134;2022-12-05T06:34:18;2.10;99.90
69747;DHT22;57018;50.278;19.134;2022-12-05T06:36:48;2.10;99.90
69747;DHT22;57018;50.278;19.134;2022-12-05T06:39:17;2.20;99.90
69747;DHT22;57018;50.278;19.134;2022-12-05T06:41:48;2.30;99.90
69747;DHT22;57018;50.278;19.134;2022-12-05T06:44:17;2.50;99.90
69747;DHT22;57018;50.278;19.134;2022-12-05T06:46:49;2.40;99.90
69747;DHT22;57018;50.278;19.134;2022-12-05T06:49:19;2.30;99.90
69747;DHT22;57018;50.278;19.134;2022-12-05T06:51:49;2.30;99.90
69747;DHT22;57018;50.278;19.134;2022-12-05T06:54:19;2.20;99.90
69747;DHT22;57018;50.278;19.134;2022-12-05T06:56:50;2.40;99.90
69747;DHT22;57018;50.278;19.134;2022-12-05T06:59:20;2.50;99.90
69747;DHT22;57018;50.278;19.134;2022-12-05T07:01:49;2.50;99.90
69747;DHT22;57018;50.278;19.134;2022-12-05T07:04:21;2.30;99.90
69747;DHT22;57018;50.278;19.134;2022-12-05T07:06:53;2.50;99.90
69747;DHT22;57018;50.278;19.134;2022-12-05T07:09:24;2.50;99.90
69747;DHT22;57018;50.278;19.134;2022-12-05T07:12:14;2.70;99.90
69747;DHT22;57018;50.278;19.134;2022-12-05T07:14:45;2.50;99.90
69747;DHT22;57018;50.278;19.134;2022-12-05T07:17:16;2.50;99.90
69747;DHT22;57018;50.278;19.134;2022-12-05T07:19:47;2.70;99.90
69747;DHT22;57018;50.278;19.134;2022-12-05T07:22:18;2.80;99.90
69747;DHT22;57018;50.278;19.134;2022-12-05T07:24:49;2.90;99.90
69747;DHT22;57018;50.278;19.134;2022-12-05T07:27:19;2.90;99.90
69747;DHT22;57018;50.278;19.134;2022-12-05T07:29:49;3.00;99.80
69747;DHT22;57018;50.278;19.134;2022-12-05T07:32:19;3.00;99.90
69747;DHT22;57018;50.278;19.134;2022-12-05T07:34:49;2.80;99.90
69747;DHT22;57018;50.278;19.134;2022-12-05T07:37:19;3.30;99.90
69747;DHT22;57018;50.278;19.134;2022-12-05T07:39:50;3.30;99.70
69747;DHT22;57018;50.278;19.134;2022-12-05T07:42:20;3.40;98.90
69747;DHT22;57018;50.278;19.134;2022-12-05T07:44:50;3.50;98.30
69747;DHT22;57018;50.278;19.134;2022-12-05T07:47:20;3.60;98.50
69747;DHT22;57018;50.278;19.134;2022-12-05T07:49:50;3.80;96.90
69747;DHT22;57018;50.278;19.134;2022-12-05T07:52:20;3.90;96.60
69747;DHT22;57018;50.278;19.134;2022-12-05T07:54:49;4.00;97.10
69747;DHT22;57018;50.278;19.134;2022-12-05T07:57:20;3.90;96.30
69747;DHT22;57018;50.278;19.134;2022-12-05T07:59:50;4.20;96.10
69747;DHT22;57018;50.278;19.134;2022-12-05T08:02:20;4.10;94.50
69747;DHT22;57018;50.278;19.134;2022-12-05T08:04:50;4.20;95.60
69747;DHT22;57018;50.278;19.134;2022-12-05T08:07:18;4.40;94.80
69747;DHT22;57018;50.278;19.134;2022-12-05T08:09:47;4.60;94.20
69747;DHT22;57018;50.278;19.134;2022-12-05T08:12:17;4.70;93.30
69747;DHT22;57018;50.278;19.134;2022-12-05T08:14:47;4.60;93.60
69747;DHT22;57018;50.278;19.134;2022-12-05T08:17:17;4.70;93.60
69747;DHT22;57018;50.278;19.134;2022-12-05T08:19:47;4.90;93.20
69747;DHT22;57018;50.278;19.134;2022-12-05T08:22:15;5.00;92.80
69747;DHT22;57018;50.278;19.134;2022-12-05T08:24:45;5.10;92.10
69747;DHT22;57018;50.278;19.134;2022-12-05T08:27:15;5.10;91.00
69747;DHT22;57018;50.278;19.134;2022-12-05T08:29:45;5.00;91.20
69747;DHT22;57018;50.278;19.134;2022-12-05T08:32:15;5.00;91.40
69747;DHT22;57018;50.278;19.134;2022-12-05T08:34:45;4.90;91.80
69747;DHT22;57018;50.278;19.134;2022-12-05T08:37:15;4.70;92.20
69747;DHT22;57018;50.278;19.134;2022-12-05T08:39:45;4.70;92.50
69747;DHT22;57018;50.278;19.134;2022-12-05T08:42:15;4.80;92.40
69747;DHT22;57018;50.278;19.134;2022-12-05T08:44:45;4.60;92.40
69747;DHT22;57018;50.278;19.134;2022-12-05T08:47:18;4.70;92.50
69747;DHT22;57018;50.278;19.134;2022-12-05T08:49:48;4.80;91.80
69747;DHT22;57018;50.278;19.134;2022-12-05T08:52:18;4.90;92.00
69747;DHT22;57018;50.278;19.134;2022-12-05T08:54:49;5.10;92.40
69747;DHT22;57018;50.278;19.134;2022-12-05T08:57:19;5.20;92.00
69747;DHT22;57018;50.278;19.134;2022-12-05T08:59:49;5.50;91.30
69747;DHT22;57018;50.278;19.134;2022-12-05T09:02:19;5.40;91.20
69747;DHT22;57018;50.278;19.134;2022-12-05T09:04:50;5.40;90.40
69747;DHT22;57018;50.278;19.134;2022-12-05T09:07:20;5.50;91.00
69747;DHT22;57018;50.278;19.134;2022-12-05T09:09:50;5.70;90.70
69747;DHT22;57018;50.278;19.134;2022-12-05T09:12:20;5.60;89.90
69747;DHT22;57018;50.278;19.134;2022-12-05T09:14:50;5.70;89.90
69747;DHT22;57018;50.278;19.134;2022-12-05T09:17:18;5.60;89.70
69747;DHT22;57018;50.278;19.134;2022-12-05T09:19:51;5.80;90.00
69747;DHT22;57018;50.278;19.134;2022-12-05T09:22:21;5.70;89.80
69747;DHT22;57018;50.278;19.134;2022-12-05T09:24:51;5.70;90.50
69747;DHT22;57018;50.278;19.134;2022-12-05T09:27:21;5.70;90.30
69747;DHT22;57018;50.278;19.134;2022-12-05T09:29:51;5.70;90.10
69747;DHT22;57018;50.278;19.134;2022-12-05T09:32:21;5.80;90.20
69747;DHT22;57018;50.278;19.134;2022-12-05T09:34:51;6.20;90.00
69747;DHT22;57018;50.278;19.134;2022-12-05T09:37:21;6.10;89.90
69747;DHT22;57018;50.278;19.134;2022-12-05T09:39:51;6.10;89.70
69747;DHT22;57018;50.278;19.134;2022-12-05T09:42:34;6.30;89.00
69747;DHT22;57018;50.278;19.134;2022-12-05T09:45:07;6.20;89.50
69747;DHT22;57018;50.278;19.134;2022-12-05T09:47:47;6.20;88.90
69747;DHT22;57018;50.278;19.134;2022-12-05T09:50:40;6.50;88.80
69747;DHT22;57018;50.278;19.134;2022-12-05T09:53:19;6.40;88.70
69747;DHT22;57018;50.278;19.134;2022-12-05T09:55:53;6.40;88.40
69747;DHT22;57018;50.278;19.134;2022-12-05T09:58:32;6.20;88.70
69747;DHT22;57018;50.278;19.134;2022-12-05T10:01:07;6.60;87.90
69747;DHT22;57018;50.278;19.134;2022-12-05T10:03:44;6.50;88.20
69747;DHT22;57018;50.278;19.134;2022-12-05T10:06:22;6.60;87.80
69747;DHT22;57018;50.278;19.134;2022-12-05T10:09:04;6.50;88.50
69747;DHT22;57018;50.278;19.134;2022-12-05T10:11:40;6.50;88.10
69747;DHT22;57018;50.278;19.134;2022-12-05T10:14:11;6.70;87.90
69747;DHT22;57018;50.278;19.134;2022-12-05T10:16:47;6.70;88.00
69747;DHT22;57018;50.278;19.134;2022-12-05T10:19:23;6.80;87.90
69747;DHT22;57018;50.278;19.134;2022-12-05T10:21:58;6.90;87.80
69747;DHT22;57018;50.278;19.134;2022-12-05T10:24:35;6.70;87.40
69747;DHT22;57018;50.278;19.134;2022-12-05T10:27:09;6.90;87.70
69747;DHT22;57018;50.278;19.134;2022-12-05T10:29:44;7.00;87.40
69747;DHT22;57018;50.278;19.134;2022-12-05T10:32:20;6.70;87.20
69747;DHT22;57018;50.278;19.134;2022-12-05T10:34:57;6.90;87.30
69747;DHT22;57018;50.278;19.134;2022-12-05T10:37:27;7.10;86.90
69747;DHT22;57018;50.278;19.134;2022-12-05T10:39:58;7.10;86.70
69747;DHT22;57018;50.278;19.134;2022-12-05T10:42:30;7.10;86.60
69747;DHT22;57018;50.278;19.134;2022-12-05T10:45:06;7.00;86.70
69747;DHT22;57018;50.278;19.134;2022-12-05T10:47:36;7.40;86.40
69747;DHT22;57018;50.278;19.134;2022-12-05T10:50:14;7.20;86.30
69747;DHT22;57018;50.278;19.134;2022-12-05T10:52:46;7.70;86.40
69747;DHT22;57018;50.278;19.134;2022-12-05T10:55:18;7.80;85.40
69747;DHT22;57018;50.278;19.134;2022-12-05T10:57:51;7.80;83.70
69747;DHT22;57018;50.278;19.134;2022-12-05T11:00:35;7.80;84.20
69747;DHT22;57018;50.278;19.134;2022-12-05T11:03:26;8.00;84.00
69747;DHT22;57018;50.278;19.134;2022-12-05T11:05:58;7.80;83.70
69747;DHT22;57018;50.278;19.134;2022-12-05T11:08:30;7.80;84.40
69747;DHT22;57018;50.278;19.134;2022-12-05T11:11:04;7.70;84.30
69747;DHT22;57018;50.278;19.134;2022-12-05T11:13:35;7.70;84.90
69747;DHT22;57018;50.278;19.134;2022-12-05T11:16:08;8.00;85.00
69747;DHT22;57018;50.278;19.134;2022-12-05T11:18:50;8.00;83.90
69747;DHT22;57018;50.278;19.134;2022-12-05T11:21:20;8.30;83.70
69747;DHT22;57018;50.278;19.134;2022-12-05T11:23:51;8.60;83.60
69747;DHT22;57018;50.278;19.134;2022-12-05T11:26:36;8.60;82.60
69747;DHT22;57018;50.278;19.134;2022-12-05T11:29:29;8.70;82.40
69747;DHT22;57018;50.278;19.134;2022-12-05T11:32:00;8.80;82.30
69747;DHT22;57018;50.278;19.134;2022-12-05T11:34:36;9.00;82.10
69747;DHT22;57018;50.278;19.134;2022-12-05T11:37:13;9.00;81.90
69747;DHT22;57018;50.278;19.134;2022-12-05T11:39:44;9.00;81.50
69747;DHT22;57018;50.278;19.134;2022-12-05T11:42:31;8.80;81.20
69747;DHT22;57018;50.278;19.134;2022-12-05T11:48:33;8.80;81.90
69747;DHT22;57018;50.278;19.134;2022-12-05T11:51:22;8.80;81.80
69747;DHT22;57018;50.278;19.134;2022-12-05T11:57:14;9.10;81.80
69747;DHT22;57018;50.278;19.134;2022-12-05T12:00:04;9.10;81.60
69747;DHT22;57018;50.278;19.134;2022-12-05T12:02:49;8.90;81.20
69747;DHT22;57018;50.278;19.134;2022-12-05T12:05:19;9.30;80.90
69747;DHT22;57018;50.278;19.134;2022-12-05T12:08:02;9.30;80.70
69747;DHT22;57018;50.278;19.134;2022-12-05T12:10:42;9.20;80.70
69747;DHT22;57018;50.278;19.134;2022-12-05T12:13:29;9.20;80.70
69747;DHT22;57018;50.278;19.134;2022-12-05T12:16:12;9.20;80.60
69747;DHT22;57018;50.278;19.134;2022-12-05T12:19:07;9.10;80.70
69747;DHT22;57018;50.278;19.134;2022-12-05T12:21:53;9.00;81.00
69747;DHT22;57018;50.278;19.134;2022-12-05T12:24:35;9.00;80.90
69747;DHT22;57018;50.278;19.134;2022-12-05T12:27:14;8.90;81.00
69747;DHT22;57018;50.278;19.134;2022-12-05T12:30:00;8.90;80.80
69747;DHT22;57018;50.278;19.134;2022-12-05T12:32:38;9.10;80.80
69747;DHT22;57018;50.278;19.134;2022-12-05T12:35:16;9.00;80.70
69747;DHT22;57018;50.278;19.134;2022-12-05T12:38:01;8.80;80.70
69747;DHT22;57018;50.278;19.134;2022-12-05T12:40:37;9.00;81.00
69747;DHT22;57018;50.278;19.134;2022-12-05T12:43:21;8.70;81.20
69747;DHT22;57018;50.278;19.134;2022-12-05T12:46:10;8.70;80.90
69747;DHT22;57018;50.278;19.134;2022-12-05T12:48:57;8.80;81.30
69747;DHT22;57018;50.278;19.134;2022-12-05T12:51:30;8.90;81.50
69747;DHT22;57018;50.278;19.134;2022-12-05T12:54:17;8.90;81.30
69747;DHT22;57018;50.278;19.134;2022-12-05T12:56:56;8.90;81.00
69747;DHT22;57018;50.278;19.134;2022-12-05T12:59:49;9.00;81.20
69747;DHT22;57018;50.278;19.134;2022-12-05T13:02:26;8.90;81.10
69747;DHT22;57018;50.278;19.134;2022-12-05T13:05:02;9.00;81.00
69747;DHT22;57018;50.278;19.134;2022-12-05T13:07:38;8.80;81.40
69747;DHT22;57018;50.278;19.134;2022-12-05T13:10:19;8.80;81.40
69747;DHT22;57018;50.278;19.134;2022-12-05T13:12:51;8.70;80.90
69747;DHT22;57018;50.278;19.134;2022-12-05T13:15:26;8.80;81.20
69747;DHT22;57018;50.278;19.134;2022-12-05T13:18:00;8.70;81.30
69747;DHT22;57018;50.278;19.134;2022-12-05T13:20:34;8.90;81.30
69747;DHT22;57018;50.278;19.134;2022-12-05T13:23:05;8.80;81.30
69747;DHT22;57018;50.278;19.134;2022-12-05T13:25:38;8.60;81.60
69747;DHT22;57018;50.278;19.134;2022-12-05T13:28:24;8.60;81.90
69747;DHT22;57018;50.278;19.134;2022-12-05T13:30:56;8.60;82.00
69747;DHT22;57018;50.278;19.134;2022-12-05T13:33:32;8.70;82.10
69747;DHT22;57018;50.278;19.134;2022-12-05T13:36:09;8.80;81.80
69747;DHT22;57018;50.278;19.134;2022-12-05T13:39:02;8.80;81.90
69747;DHT22;57018;50.278;19.134;2022-12-05T13:41:52;8.80;82.10
69747;DHT22;57018;50.278;19.134;2022-12-05T13:44:47;8.80;82.20
69747;DHT22;57018;50.278;19.134;2022-12-05T13:47:26;8.70;82.30
69747;DHT22;57018;50.278;19.134;2022-12-05T13:50:04;8.80;82.20
69747;DHT22;57018;50.278;19.134;2022-12-05T13:52:44;8.70;82.30
69747;DHT22;57018;50.278;19.134;2022-12-05T13:55:23;8.60;82.40
69747;DHT22;57018;50.278;19.134;2022-12-05T13:57:55;8.50;82.50
69747;DHT22;57018;50.278;19.134;2022-12-05T14:00:34;8.20;82.60
69747;DHT22;57018;50.278;19.134;2022-12-05T14:09:47;8.40;83.30
69747;DHT22;57018;50.278;19.134;2022-12-05T14:15:33;8.50;91.40
69747;DHT22;57018;50.278;19.134;2022-12-05T14:18:08;8.40;89.30
69747;DHT22;57018;50.278;19.134;2022-12-05T14:23:40;8.40;86.30
69747;DHT22;57018;50.278;19.134;2022-12-05T14:26:32;8.20;85.90
69747;DHT22;57018;50.278;19.134;2022-12-05T14:29:26;8.10;86.30
69747;DHT22;57018;50.278;19.134;2022-12-05T14:32:08;8.20;86.10
69747;DHT22;57018;50.278;19.134;2022-12-05T14:34:53;8.20;86.20
69747;DHT22;57018;50.278;19.134;2022-12-05T14:37:28;8.00;85.90
69747;DHT22;57018;50.278;19.134;2022-12-05T14:40:00;8.10;85.90
69747;DHT22;57018;50.278;19.134;2022-12-05T14:42:36;8.10;86.00
69747;DHT22;57018;50.278;19.134;2022-12-05T14:45:25;8.10;86.00
69747;DHT22;57018;50.278;19.134;2022-12-05T14:47:57;8.00;86.30
69747;DHT22;57018;50.278;19.134;2022-12-05T14:50:43;8.00;86.60
69747;DHT22;57018;50.278;19.134;2022-12-05T14:56:13;7.90;86.50
69747;DHT22;57018;50.278;19.134;2022-12-05T14:58:49;7.80;86.60
69747;DHT22;57018;50.278;19.134;2022-12-05T15:01:19;7.70;86.30
69747;DHT22;57018;50.278;19.134;2022-12-05T15:06:34;7.60;86.50
69747;DHT22;57018;50.278;19.134;2022-12-05T15:09:05;7.50;86.50
69747;DHT22;57018;50.278;19.134;2022-12-05T15:11:38;7.50;87.00
69747;DHT22;57018;50.278;19.134;2022-12-05T15:14:14;7.30;87.10
69747;DHT22;57018;50.278;19.134;2022-12-05T15:16:45;7.30;87.80
69747;DHT22;57018;50.278;19.134;2022-12-05T15:19:16;7.20;88.00
69747;DHT22;57018;50.278;19.134;2022-12-05T15:21:50;7.20;88.30
69747;DHT22;57018;50.278;19.134;2022-12-05T15:24:23;7.20;88.50
69747;DHT22;57018;50.278;19.134;2022-12-05T15:26:55;7.20;89.00
69747;DHT22;57018;50.278;19.134;2022-12-05T15:29:27;6.90;88.50
69747;DHT22;57018;50.278;19.134;2022-12-05T15:32:02;7.20;88.80
69747;DHT22;57018;50.278;19.134;2022-12-05T15:34:38;6.90;89.30
69747;DHT22;57018;50.278;19.134;2022-12-05T15:37:14;6.80;89.40
69747;DHT22;57018;50.278;19.134;2022-12-05T15:39:53;6.90;89.50
69747;DHT22;57018;50.278;19.134;2022-12-05T15:42:26;6.90;89.70
69747;DHT22;57018;50.278;19.134;2022-12-05T15:45:16;6.90;89.90
69747;DHT22;57018;50.278;19.134;2022-12-05T15:47:50;7.10;90.10
69747;DHT22;57018;50.278;19.134;2022-12-05T15:50:26;6.90;90.20
69747;DHT22;57018;50.278;19.134;2022-12-05T15:53:00;7.00;90.10
69747;DHT22;57018;50.278;19.134;2022-12-05T15:55:34;7.00;90.00
69747;DHT22;57018;50.278;19.134;2022-12-05T15:58:06;6.80;90.00
69747;DHT22;57018;50.278;19.134;2022-12-05T16:00:39;6.90;90.00
69747;DHT22;57018;50.278;19.134;2022-12-05T16:03:14;7.10;90.00
69747;DHT22;57018;50.278;19.134;2022-12-05T16:05:50;7.00;89.90
69747;DHT22;57018;50.278;19.134;2022-12-05T16:08:21;6.90;90.00
69747;DHT22;57018;50.278;19.134;2022-12-05T16:10:52;7.00;90.10
69747;DHT22;57018;50.278;19.134;2022-12-05T16:13:21;7.00;90.30
69747;DHT22;57018;50.278;19.134;2022-12-05T16:15:54;6.80;90.40
69747;DHT22;57018;50.278;19.134;2022-12-05T16:18:26;7.00;90.40
69747;DHT22;57018;50.278;19.134;2022-12-05T16:20:57;7.00;90.40
69747;DHT22;57018;50.278;19.134;2022-12-05T16:23:29;6.80;90.80
69747;DHT22;57018;50.278;19.134;2022-12-05T16:26:16;7.00;91.20
69747;DHT22;57018;50.278;19.134;2022-12-05T16:28:58;7.00;91.00
69747;DHT22;57018;50.278;19.134;2022-12-05T16:31:29;6.70;90.80
69747;DHT22;57018;50.278;19.134;2022-12-05T16:34:05;7.00;90.90
69747;DHT22;57018;50.278;19.134;2022-12-05T16:36:35;6.90;90.50
69747;DHT22;57018;50.278;19.134;2022-12-05T16:39:15;7.00;90.80
69747;DHT22;57018;50.278;19.134;2022-12-05T16:41:46;7.00;91.10